Time;durP1;ratioP1;P1;durP2;ratioP2;P2;SDS_P1;SDS_P2;PMS_P1;PMS_P2;Temp;Humidity;BMP_temperature;BMP_pressure;BME280_temperature;BME280_humidity;BME280_pressure;Samples;Min_cycle;Max_cycle;Signal;HPM_P1;HPM_P2
2022/02/16 00:02:09;;;;;;;19.70;18.80;;;12.10;79.50;;;;;;4962270;28;20051;-87
2022/02/16 00:04:35;;;;;;;19.80;18.90;;;12.10;79.60;;;;;;4984642;28;20031;-89
2022/02/16 00:07:02;;;;;;;19.48;18.58;;;12.10;80.30;;;;;;4958117;28;20128;-88
2022/02/16 00:09:28;;;;;;;19.50;18.60;;;12.10;79.60;;;;;;4987267;28;20512;-88
2022/02/16 00:11:54;;;;;;;19.73;18.83;;;12.10;79.60;;;;;;4968931;28;20524;-88
2022/02/16 00:14:20;;;;;;;19.38;18.48;;;12.10;79.60;;;;;;4963915;28;20031;-88
2022/02/16 00:16:47;;;;;;;19.10;18.20;;;12.10;80.30;;;;;;4967602;28;20114;-88
2022/02/16 00:19:13;;;;;;;19.63;18.73;;;12.10;79.60;;;;;;4972540;28;20031;-89
2022/02/16 00:21:39;;;;;;;19.38;18.48;;;12.20;80.40;;;;;;4958334;28;20030;-88
2022/02/16 00:24:05;;;;;;;19.50;18.60;;;12.20;79.70;;;;;;4960235;28;20031;-88
2022/02/16 00:26:31;;;;;;;20.08;19.17;;;12.20;79.70;;;;;;4961452;28;20031;-88
2022/02/16 00:28:57;;;;;;;19.50;18.60;;;12.20;79.70;;;;;;4962625;28;20039;-89
2022/02/16 00:31:24;;;;;;;19.67;18.77;;;12.20;79.70;;;;;;4962294;28;20506;-88
2022/02/16 00:33:50;;;;;;;19.48;18.58;;;12.20;79.80;;;;;;4971372;28;20031;-88
2022/02/16 00:36:16;;;;;;;19.98;19.08;;;12.20;80.60;;;;;;4959406;28;20043;-88
2022/02/16 00:38:42;;;;;;;19.70;18.80;;;12.20;79.80;;;;;;4961807;28;20050;-88
2022/02/16 00:41:08;;;;;;;20.08;19.17;;;12.20;79.90;;;;;;4966283;28;20041;-88
2022/02/16 00:43:34;;;;;;;19.38;18.48;;;12.20;79.80;;;;;;4961757;28;20031;-88
2022/02/16 00:46:00;;;;;;;19.40;18.50;;;12.20;80.00;;;;;;4959763;28;20498;-88
2022/02/16 00:48:26;;;;;;;19.60;18.70;;;12.20;79.90;;;;;;4958649;28;20058;-88
2022/02/16 00:50:52;;;;;;;19.85;18.95;;;12.30;80.00;;;;;;4959630;28;20023;-88
2022/02/16 00:53:18;;;;;;;20.08;19.17;;;12.20;79.90;;;;;;4963318;28;20047;-88
2022/02/16 00:55:46;;;;;;;20.08;19.17;;;12.30;80.00;;;;;;4975697;28;20049;-88
2022/02/16 00:58:12;;;;;;;19.75;18.85;;;12.30;80.00;;;;;;4971308;28;20042;-88
2022/02/16 01:00:38;;;;;;;20.00;19.10;;;12.30;80.00;;;;;;4957134;28;20035;-88
2022/02/16 01:03:05;;;;;;;19.60;18.70;;;12.30;80.00;;;;;;4959060;28;20039;-88
2022/02/16 01:05:31;;;;;;;19.92;19.02;;;12.30;80.00;;;;;;4962148;28;20027;-89
2022/02/16 01:07:57;;;;;;;20.50;19.60;;;12.30;80.10;;;;;;4966160;28;20505;-88
2022/02/16 01:10:23;;;;;;;20.33;19.42;;;12.40;80.10;;;;;;4974737;28;20035;-89
2022/02/16 01:12:50;;;;;;;21.65;20.65;;;12.40;80.10;;;;;;4972765;28;20026;-88
2022/02/16 01:15:16;;;;;;;19.83;18.92;;;12.40;80.10;;;;;;4964067;28;20041;-89
2022/02/16 01:17:43;;;;;;;20.67;19.75;;;12.40;80.10;;;;;;4987566;28;20043;-88
2022/02/16 01:20:09;;;;;;;19.88;18.98;;;12.40;80.10;;;;;;4965828;28;20035;-88
2022/02/16 01:22:36;;;;;;;19.65;18.75;;;12.40;80.10;;;;;;4977637;28;20493;-88
2022/02/16 01:25:02;;;;;;;19.60;18.70;;;12.40;80.10;;;;;;4970668;28;20034;-89
2022/02/16 01:27:28;;;;;;;19.80;18.90;;;12.40;80.10;;;;;;4957309;28;20036;-89
2022/02/16 01:29:54;;;;;;;19.70;18.80;;;12.40;80.20;;;;;;4965248;28;20385;-89
2022/02/16 01:32:20;;;;;;;20.25;19.35;;;12.40;80.20;;;;;;4978769;28;20039;-89
2022/02/16 01:34:46;;;;;;;19.27;18.38;;;12.40;80.20;;;;;;4976680;28;20031;-89
2022/02/16 01:37:12;;;;;;;19.80;18.90;;;12.40;80.30;;;;;;4965384;28;20050;-88
2022/02/16 01:39:38;;;;;;;19.90;19.00;;;12.50;80.30;;;;;;4976544;28;20031;-88
2022/02/16 01:42:05;;;;;;;20.00;19.10;;;12.50;80.40;;;;;;4969561;28;20039;-88
2022/02/16 01:44:31;;;;;;;20.60;19.70;;;12.50;80.30;;;;;;4961124;28;20403;-88
2022/02/16 01:47:04;;;;;;;21.45;20.45;;;12.50;80.40;;;;;;4959337;28;20388;-88
2022/02/16 01:49:34;;;;;;;19.90;19.00;;;12.50;80.40;;;;;;4961518;28;20034;-88
2022/02/16 01:52:00;;;;;;;20.33;19.42;;;12.50;80.40;;;;;;4958972;28;20030;-88
2022/02/16 01:54:26;;;;;;;20.33;19.42;;;12.50;80.40;;;;;;4971788;28;20031;-89
2022/02/16 01:56:52;;;;;;;20.42;19.52;;;12.50;80.40;;;;;;4960149;28;20383;-89
2022/02/16 01:59:20;;;;;;;19.77;18.88;;;12.60;80.60;;;;;;4961499;28;20035;-89
2022/02/16 02:01:47;;;;;;;20.50;19.60;;;12.60;80.60;;;;;;4982778;28;20418;-89
2022/02/16 02:04:16;;;;;;;20.00;19.10;;;12.60;80.60;;;;;;4960837;28;20035;-88
2022/02/16 02:06:43;;;;;;;19.75;18.85;;;12.60;80.60;;;;;;4964223;28;20725;-89
2022/02/16 02:09:09;;;;;;;20.60;19.70;;;12.60;80.50;;;;;;4975303;28;20521;-89
2022/02/16 02:11:35;;;;;;;20.40;19.40;;;12.60;80.60;;;;;;4965953;28;20371;-89
2022/02/16 02:14:04;;;;;;;19.30;18.40;;;12.60;81.30;;;;;;4986096;28;20037;-88
2022/02/16 02:16:31;;;;;;;19.83;18.92;;;12.60;80.60;;;;;;4973588;28;20043;-88
2022/02/16 02:18:57;;;;;;;19.38;18.48;;;12.70;81.40;;;;;;4962257;28;20026;-89
2022/02/16 02:21:23;;;;;;;19.90;19.00;;;12.70;80.60;;;;;;4973168;28;20043;-88
2022/02/16 02:23:50;;;;;;;19.27;18.38;;;12.70;81.40;;;;;;4964293;28;20038;-88
2022/02/16 02:26:16;;;;;;;19.70;18.80;;;12.70;80.60;;;;;;4987587;28;20031;-89
2022/02/16 02:28:42;;;;;;;19.65;18.73;;;12.70;80.60;;;;;;4972654;28;20054;-87
2022/02/16 02:31:09;;;;;;;19.92;19.02;;;12.70;80.70;;;;;;4963148;28;20034;-87
2022/02/16 02:33:37;;;;;;;19.70;18.80;;;12.70;80.70;;;;;;4961073;28;20039;-88
2022/02/16 02:36:04;;;;;;;19.67;18.77;;;12.70;80.70;;;;;;4965010;28;20035;-88
2022/02/16 02:38:31;;;;;;;20.23;19.33;;;12.70;80.70;;;;;;4964374;28;20562;-88
2022/02/16 02:40:59;;;;;;;20.40;19.50;;;12.70;80.70;;;;;;4966054;28;20034;-87
2022/02/16 02:43:25;;;;;;;19.73;18.83;;;12.70;80.70;;;;;;4976984;28;20039;-87
2022/02/16 02:45:52;;;;;;;19.88;18.98;;;12.70;80.70;;;;;;4975320;28;20394;-89
2022/02/16 02:48:22;;;;;;;19.80;18.90;;;12.70;80.70;;;;;;4960142;28;20056;-89
2022/02/16 02:50:50;;;;;;;20.13;19.23;;;12.80;80.90;;;;;;4962461;28;20040;-88
2022/02/16 02:53:16;;;;;;;19.85;18.95;;;12.80;80.90;;;;;;4986861;28;20046;-88
2022/02/16 02:55:42;;;;;;;20.40;19.50;;;12.80;80.90;;;;;;4971680;28;20402;-88
2022/02/16 02:58:09;;;;;;;19.67;18.77;;;12.80;80.90;;;;;;4963972;28;20674;-89
2022/02/16 03:00:35;;;;;;;19.75;18.85;;;12.80;81.00;;;;;;4958178;28;20032;-89
2022/02/16 03:03:01;;;;;;;20.27;19.38;;;12.80;81.00;;;;;;4962684;28;20031;-89
2022/02/16 03:05:27;;;;;;;20.48;19.58;;;12.80;81.00;;;;;;4968781;28;20051;-89
2022/02/16 03:07:54;;;;;;;20.05;19.15;;;12.80;81.00;;;;;;4964486;28;20042;-88
2022/02/16 03:10:20;;;;;;;21.45;20.45;;;12.80;81.00;;;;;;4966787;28;20466;-89
2022/02/16 03:12:46;;;;;;;20.25;19.35;;;12.80;81.00;;;;;;4966796;28;20050;-86
2022/02/16 03:15:12;;;;;;;20.85;19.85;;;12.80;81.00;;;;;;4969565;28;20037;-88
2022/02/16 03:17:38;;;;;;;20.27;19.38;;;12.80;81.00;;;;;;4982334;28;20046;-88
2022/02/16 03:20:05;;;;;;;21.48;20.48;;;12.90;81.10;;;;;;4969046;28;20026;-88
2022/02/16 03:22:32;;;;;;;20.83;19.85;;;12.90;81.20;;;;;;4970473;28;20041;-89
2022/02/16 03:24:59;;;;;;;20.85;19.85;;;12.90;81.10;;;;;;4970042;28;20035;-88
2022/02/16 03:27:25;;;;;;;19.27;18.38;;;12.90;81.10;;;;;;4963902;28;20393;-86
2022/02/16 03:29:51;;;;;;;20.40;19.50;;;12.90;81.20;;;;;;4970488;28;20039;-88
2022/02/16 03:32:18;;;;;;;21.05;20.05;;;12.90;81.10;;;;;;4968387;28;20047;-88
2022/02/16 03:34:44;;;;;;;20.95;19.95;;;12.90;81.20;;;;;;4971218;28;20030;-88
2022/02/16 03:37:10;;;;;;;20.90;19.90;;;12.90;81.10;;;;;;4967929;28;20046;-88
2022/02/16 03:39:36;;;;;;;20.42;19.52;;;13.00;81.30;;;;;;4963956;28;20042;-88
2022/02/16 03:42:02;;;;;;;19.48;18.58;;;13.00;81.20;;;;;;4965003;28;20042;-87
2022/02/16 03:44:28;;;;;;;20.80;19.83;;;13.00;81.30;;;;;;4968761;28;20034;-87
2022/02/16 03:46:55;;;;;;;20.70;19.75;;;13.00;81.30;;;;;;4969948;28;20055;-87
2022/02/16 03:49:24;;;;;;;21.38;20.27;;;13.00;81.30;;;;;;4986228;28;20042;-88
2022/02/16 03:51:50;;;;;;;19.95;19.05;;;13.00;81.20;;;;;;4989147;28;20043;-88
2022/02/16 03:54:17;;;;;;;20.77;19.83;;;13.00;81.20;;;;;;4974125;28;20100;-87
2022/02/16 03:56:43;;;;;;;20.38;19.48;;;13.00;81.30;;;;;;4973689;28;20061;-87
2022/02/16 03:59:09;;;;;;;21.42;20.42;;;13.00;81.30;;;;;;4967401;28;20518;-88
2022/02/16 04:01:36;;;;;;;21.17;20.17;;;13.00;81.30;;;;;;4962879;28;20470;-87
2022/02/16 04:04:02;;;;;;;19.98;19.08;;;13.00;81.30;;;;;;4960469;28;20039;-87
2022/02/16 04:06:28;;;;;;;20.20;19.30;;;13.00;81.40;;;;;;4973339;28;20027;-88
2022/02/16 04:08:54;;;;;;;20.65;19.73;;;13.10;81.40;;;;;;4961750;28;20031;-87
2022/02/16 04:11:26;;;;;;;20.50;19.60;;;13.00;81.30;;;;;;4980998;28;20509;-87
2022/02/16 04:13:53;;;;;;;20.98;19.98;;;13.10;81.40;;;;;;4978358;28;20032;-88
2022/02/16 04:16:20;;;;;;;20.65;19.70;;;13.10;81.50;;;;;;4968807;28;20049;-87
2022/02/16 04:18:46;;;;;;;21.15;20.15;;;13.10;81.50;;;;;;4958786;28;20037;-87
2022/02/16 04:21:12;;;;;;;20.92;19.80;;;13.10;81.50;;;;;;4970717;28;20493;-88
2022/02/16 04:23:38;;;;;;;20.98;19.98;;;13.00;81.50;;;;;;4986968;28;20038;-88
2022/02/16 04:26:06;;;;;;;21.85;20.85;;;13.10;81.60;;;;;;4963080;28;20035;-88
2022/02/16 04:28:32;;;;;;;20.83;19.85;;;13.10;81.60;;;;;;4962756;28;20038;-88
2022/02/16 04:30:58;;;;;;;20.55;19.65;;;13.10;81.60;;;;;;4978669;28;20046;-87
2022/02/16 04:33:24;;;;;;;21.17;20.17;;;13.10;81.70;;;;;;4965092;28;20038;-87
2022/02/16 04:35:50;;;;;;;21.42;20.42;;;13.10;81.60;;;;;;4969137;28;20038;-88
2022/02/16 04:38:16;;;;;;;20.73;19.77;;;13.10;81.70;;;;;;4968626;28;20441;-86
2022/02/16 04:40:43;;;;;;;20.70;19.70;;;13.10;81.70;;;;;;4983166;28;20031;-85
2022/02/16 04:43:09;;;;;;;21.52;20.52;;;13.10;81.70;;;;;;4973693;28;20030;-87
2022/02/16 04:45:35;;;;;;;20.52;19.63;;;13.10;81.70;;;;;;4957284;28;20039;-87
2022/02/16 04:48:01;;;;;;;22.00;21.00;;;13.10;81.70;;;;;;4965719;28;20043;-85
2022/02/16 04:50:27;;;;;;;19.80;18.90;;;13.20;81.70;;;;;;4964768;28;20027;-85
2022/02/16 04:52:57;;;;;;;21.23;20.23;;;13.10;81.70;;;;;;4964798;28;20039;-85
2022/02/16 04:55:24;;;;;;;21.25;20.25;;;13.20;81.80;;;;;;4962016;28;20023;-85
2022/02/16 04:57:51;;;;;;;21.20;20.20;;;13.10;81.70;;;;;;4963349;28;20565;-87
2022/02/16 05:00:17;;;;;;;20.17;19.27;;;13.20;81.80;;;;;;4973632;28;20045;-85
2022/02/16 05:02:43;;;;;;;20.23;19.33;;;13.10;81.70;;;;;;4962370;28;20035;-86
2022/02/16 05:05:10;;;;;;;20.25;19.35;;;13.20;81.80;;;;;;4961930;28;20043;-87
2022/02/16 05:07:36;;;;;;;20.80;19.80;;;13.20;81.80;;;;;;4968789;28;20490;-84
2022/02/16 05:10:03;;;;;;;20.73;19.73;;;13.20;81.80;;;;;;4964905;28;20039;-87
2022/02/16 05:12:33;;;;;;;19.80;18.90;;;13.10;81.70;;;;;;4957982;28;20481;-83
2022/02/16 05:15:02;;;;;;;21.75;20.75;;;13.10;81.80;;;;;;4959375;28;20027;-85
2022/02/16 05:17:28;;;;;;;20.38;19.48;;;13.20;81.80;;;;;;4963469;28;20050;-87
2022/02/16 05:19:54;;;;;;;20.30;19.40;;;13.20;81.80;;;;;;4963571;28;20032;-87
2022/02/16 05:22:21;;;;;;;21.30;20.30;;;13.10;81.80;;;;;;4986420;28;20516;-86
2022/02/16 05:24:47;;;;;;;20.98;19.98;;;13.20;81.90;;;;;;4981856;28;20031;-84
2022/02/16 05:27:14;;;;;;;20.23;19.33;;;13.20;81.90;;;;;;4958083;28;20034;-87
2022/02/16 05:29:40;;;;;;;20.27;19.38;;;13.10;81.90;;;;;;4960609;28;20035;-83
2022/02/16 05:32:07;;;;;;;21.05;20.05;;;13.10;81.90;;;;;;4963715;28;20031;-84
2022/02/16 05:34:33;;;;;;;19.90;19.00;;;13.20;82.00;;;;;;4960885;28;20076;-85
2022/02/16 05:36:59;;;;;;;20.70;19.75;;;13.20;82.00;;;;;;4956995;28;20058;-85
2022/02/16 05:39:25;;;;;;;20.70;19.75;;;13.20;82.00;;;;;;4958628;28;20510;-83
2022/02/16 05:41:52;;;;;;;20.85;19.85;;;13.20;82.00;;;;;;4970091;28;20506;-86
2022/02/16 05:44:18;;;;;;;22.08;21.08;;;13.10;82.00;;;;;;4984823;28;20057;-86
2022/02/16 05:46:44;;;;;;;20.85;19.88;;;13.10;82.00;;;;;;4963145;28;20047;-85
2022/02/16 05:49:11;;;;;;;20.60;19.67;;;13.10;82.00;;;;;;4966970;28;20047;-85
2022/02/16 05:51:38;;;;;;;20.65;19.73;;;13.10;82.10;;;;;;4977448;28;20050;-85
2022/02/16 05:54:04;;;;;;;20.80;19.80;;;13.10;82.10;;;;;;4970800;28;20287;-86
2022/02/16 05:56:32;;;;;;;21.85;20.70;;;13.20;82.10;;;;;;4970295;28;20030;-84
2022/02/16 05:58:58;;;;;;;21.05;20.05;;;13.20;82.10;;;;;;4968075;28;20055;-85
2022/02/16 06:01:24;;;;;;;20.15;19.25;;;13.20;82.20;;;;;;4968554;28;20413;-84
2022/02/16 06:03:50;;;;;;;20.02;19.13;;;13.20;82.20;;;;;;4978701;28;20485;-83
2022/02/16 06:06:18;;;;;;;19.27;18.38;;;13.20;82.20;;;;;;4974492;28;20046;-86
2022/02/16 06:08:45;;;;;;;20.67;19.70;;;13.20;82.20;;;;;;4968118;28;20035;-86
2022/02/16 06:11:11;;;;;;;21.42;20.42;;;13.20;82.20;;;;;;4974228;28;20035;-86
2022/02/16 06:13:37;;;;;;;19.92;19.02;;;13.20;82.20;;;;;;4972056;28;20038;-86
2022/02/16 06:16:04;;;;;;;20.65;19.67;;;13.20;82.20;;;;;;4992526;28;20392;-87
2022/02/16 06:18:31;;;;;;;19.15;18.25;;;13.20;82.20;;;;;;4985460;28;20043;-86
2022/02/16 06:20:57;;;;;;;19.83;18.92;;;13.20;82.20;;;;;;4977490;28;20037;-87
2022/02/16 06:23:23;;;;;;;19.90;19.00;;;13.20;82.20;;;;;;4971981;28;20502;-87
2022/02/16 06:25:49;;;;;;;19.67;18.77;;;13.20;82.20;;;;;;4970515;28;20042;-87
2022/02/16 06:28:15;;;;;;;21.30;20.30;;;13.20;82.20;;;;;;4977993;28;20034;-87
2022/02/16 06:30:41;;;;;;;21.95;20.95;;;13.20;82.20;;;;;;4977375;28;20053;-87
2022/02/16 06:33:07;;;;;;;21.00;20.00;;;13.20;82.20;;;;;;4964621;28;20031;-87
2022/02/16 06:35:34;;;;;;;20.20;19.30;;;13.20;82.20;;;;;;4966128;28;20082;-87
2022/02/16 06:38:00;;;;;;;22.10;21.10;;;13.20;82.20;;;;;;4967309;28;20051;-88
2022/02/16 06:40:27;;;;;;;20.42;19.52;;;13.20;82.30;;;;;;4972488;28;20034;-87
2022/02/16 06:42:56;;;;;;;20.60;19.67;;;13.20;82.30;;;;;;4963639;28;20046;-87
2022/02/16 06:45:22;;;;;;;20.85;19.85;;;13.20;82.30;;;;;;4978629;28;20054;-87
2022/02/16 06:47:48;;;;;;;20.17;19.27;;;13.20;82.20;;;;;;4966771;28;20051;-87
2022/02/16 06:50:14;;;;;;;20.60;19.70;;;13.30;82.40;;;;;;4965898;28;20043;-86
2022/02/16 06:52:40;;;;;;;21.52;20.50;;;13.20;82.30;;;;;;4967284;28;20036;-87
2022/02/16 06:55:07;;;;;;;21.52;20.52;;;13.30;82.30;;;;;;4972353;28;20504;-87
2022/02/16 06:57:33;;;;;;;20.98;19.98;;;13.30;82.30;;;;;;4959487;28;20065;-87
2022/02/16 06:59:59;;;;;;;21.13;20.13;;;13.30;82.30;;;;;;4961347;28;20035;-87
2022/02/16 07:02:25;;;;;;;20.88;19.88;;;13.30;82.30;;;;;;4963899;28;20039;-87
2022/02/16 07:04:52;;;;;;;21.02;20.02;;;13.30;82.30;;;;;;4964180;28;20039;-87
2022/02/16 07:07:18;;;;;;;21.05;20.05;;;13.30;82.30;;;;;;4963594;28;20027;-87
2022/02/16 07:09:44;;;;;;;20.88;19.88;;;13.30;82.40;;;;;;4986073;28;20536;-86
2022/02/16 07:12:10;;;;;;;20.50;19.60;;;13.30;82.30;;;;;;4960618;28;20027;-87
2022/02/16 07:14:36;;;;;;;21.33;20.33;;;13.30;82.30;;;;;;4989066;28;20027;-87
2022/02/16 07:17:03;;;;;;;20.23;19.33;;;13.30;82.30;;;;;;4968507;28;20074;-87
2022/02/16 07:19:29;;;;;;;21.02;20.02;;;13.40;82.30;;;;;;4978386;28;20050;-87
2022/02/16 07:21:57;;;;;;;21.45;20.45;;;13.30;82.20;;;;;;4974760;28;20410;-87
2022/02/16 07:24:23;;;;;;;21.65;20.58;;;13.40;82.30;;;;;;4974093;28;20521;-87
2022/02/16 07:26:50;;;;;;;21.13;20.13;;;13.30;82.30;;;;;;4962808;28;20051;-86
2022/02/16 07:29:16;;;;;;;20.98;19.98;;;13.30;82.40;;;;;;4979297;28;20036;-87
2022/02/16 07:31:42;;;;;;;21.05;20.05;;;13.30;82.40;;;;;;4981036;28;20037;-88
2022/02/16 07:34:08;;;;;;;19.27;18.38;;;13.40;82.50;;;;;;4969305;28;20493;-91
2022/02/16 07:36:34;;;;;;;20.38;19.48;;;13.40;82.40;;;;;;4964334;28;20074;-92
2022/02/16 07:39:01;;;;;;;21.67;20.38;;;13.40;82.40;;;;;;4981352;28;20051;-92
2022/02/16 07:41:29;;;;;;;19.90;19.00;;;13.30;82.40;;;;;;4973909;28;20050;-91
2022/02/16 07:43:55;;;;;;;20.83;19.83;;;13.40;82.50;;;;;;4974588;28;20043;-92
2022/02/16 07:46:21;;;;;;;20.77;19.83;;;13.40;82.40;;;;;;4971457;28;20035;-89
2022/02/16 07:48:47;;;;;;;21.25;20.25;;;13.40;82.40;;;;;;4975521;28;20498;-89
2022/02/16 07:51:13;;;;;;;21.30;20.30;;;13.40;82.40;;;;;;4975970;28;20031;-90
2022/02/16 07:53:39;;;;;;;21.60;20.60;;;13.40;82.40;;;;;;4976873;28;20042;-84
2022/02/16 07:56:05;;;;;;;20.75;19.77;;;13.40;82.40;;;;;;4981531;28;20045;-94
2022/02/16 07:58:32;;;;;;;20.20;19.30;;;13.40;82.30;;;;;;4976836;28;20047;-92
2022/02/16 08:00:58;;;;;;;20.70;19.70;;;13.40;82.30;;;;;;4974359;28;20401;-92
2022/02/16 08:03:24;;;;;;;22.45;21.45;;;13.50;82.40;;;;;;4979843;28;20038;-94
2022/02/16 08:05:50;;;;;;;21.80;20.80;;;13.50;82.40;;;;;;4982470;28;20389;-89
2022/02/16 08:08:17;;;;;;;21.35;20.35;;;13.50;82.40;;;;;;4979871;28;20035;-79
2022/02/16 08:10:48;;;;;;;20.85;19.85;;;13.50;82.30;;;;;;4968691;28;20393;-92
2022/02/16 08:13:18;;;;;;;21.30;20.30;;;13.50;82.30;;;;;;4968158;28;20038;-89
2022/02/16 08:15:44;;;;;;;22.42;21.40;;;13.60;82.40;;;;;;4969526;28;20045;-88
2022/02/16 08:18:13;;;;;;;21.52;20.52;;;13.60;82.40;;;;;;4975477;28;20054;-89
2022/02/16 08:20:42;;;;;;;23.58;22.27;;;13.60;82.40;;;;;;4974078;28;20043;-90
2022/02/16 08:23:09;;;;;;;21.35;20.35;;;13.60;82.50;;;;;;4980638;28;20398;-92
2022/02/16 08:25:39;;;;;;;22.55;21.35;;;13.50;82.40;;;;;;4964329;28;20026;-90
2022/02/16 08:28:06;;;;;;;23.25;22.15;;;13.60;82.40;;;;;;4981053;28;20098;-89
2022/02/16 08:30:32;;;;;;;20.17;19.27;;;13.60;82.40;;;;;;4963106;28;20426;-88
2022/02/16 08:32:59;;;;;;;21.23;20.23;;;13.60;82.40;;;;;;4978901;28;20051;-87
2022/02/16 08:35:26;;;;;;;21.50;20.50;;;13.60;82.40;;;;;;4972922;28;20031;-88
2022/02/16 08:37:53;;;;;;;22.05;20.83;;;13.70;82.50;;;;;;4990403;28;20038;-92
2022/02/16 08:40:19;;;;;;;20.55;19.65;;;13.70;82.40;;;;;;4981674;28;20027;-92
2022/02/16 08:42:45;;;;;;;21.85;20.85;;;13.70;82.40;;;;;;4979011;28;20038;-93
2022/02/16 08:45:11;;;;;;;22.52;21.52;;;13.70;82.30;;;;;;4959538;28;20514;-92
2022/02/16 08:47:37;;;;;;;21.65;20.65;;;13.70;82.30;;;;;;4982631;28;20054;-92
2022/02/16 08:50:04;;;;;;;21.70;20.67;;;13.80;82.40;;;;;;4982393;28;20034;-88
2022/02/16 08:52:30;;;;;;;21.52;20.52;;;13.80;82.40;;;;;;4965717;28;20038;-86
2022/02/16 08:54:56;;;;;;;21.95;20.95;;;13.80;82.40;;;;;;4985444;28;20039;-92
2022/02/16 08:57:22;;;;;;;25.40;24.10;;;13.80;82.30;;;;;;4990756;28;20045;-91
2022/02/16 08:59:49;;;;;;;22.85;21.77;;;13.80;82.30;;;;;;4979798;28;20057;-84
2022/02/16 09:02:16;;;;;;;22.92;21.85;;;13.90;82.40;;;;;;4974301;28;20493;-91
2022/02/16 09:04:42;;;;;;;23.65;22.55;;;13.90;82.40;;;;;;4978627;28;20034;-89
2022/02/16 09:10:08;;;;;;;1012.72;512.00;;;13.90;82.30;;;;;;4965398;28;20041;-85
2022/02/16 09:12:35;;;;;;;22.48;21.38;;;13.90;82.30;;;;;;4967555;28;20037;-86
2022/02/16 09:15:02;;;;;;;21.42;20.42;;;13.90;83.10;;;;;;4955261;28;20054;-88
2022/02/16 09:17:28;;;;;;;21.65;20.60;;;13.90;82.40;;;;;;4962599;28;20039;-85
2022/02/16 09:19:54;;;;;;;24.17;23.08;;;13.90;82.30;;;;;;4972152;28;20401;-85
2022/02/16 09:22:22;;;;;;;22.58;21.38;;;13.90;82.30;;;;;;4986090;28;20389;-85
2022/02/16 09:24:48;;;;;;;22.88;21.83;;;14.00;82.40;;;;;;4969608;28;20424;-85
2022/02/16 09:27:15;;;;;;;21.95;20.85;;;14.00;82.40;;;;;;4960773;28;20035;-84
2022/02/16 09:29:41;;;;;;;22.05;21.05;;;14.00;82.40;;;;;;4981401;28;20042;-84
2022/02/16 09:32:07;;;;;;;22.45;21.45;;;14.00;82.30;;;;;;4985631;28;20035;-84
2022/02/16 09:34:34;;;;;;;22.48;21.48;;;14.00;82.30;;;;;;4967634;28;20031;-85
2022/02/16 09:37:00;;;;;;;21.38;20.38;;;14.10;82.30;;;;;;4985084;28;20064;-84
2022/02/16 09:39:26;;;;;;;22.38;21.38;;;14.10;82.20;;;;;;4974662;28;20391;-84
2022/02/16 09:41:55;;;;;;;22.80;21.65;;;14.20;82.30;;;;;;4963998;28;20035;-84
2022/02/16 09:44:44;;;;;;;20.92;19.92;;;14.20;82.20;;;;;;4969098;28;20406;-84
2022/02/16 09:47:11;;;;;;;23.83;22.73;;;14.20;82.20;;;;;;4964393;28;20410;-85
2022/02/16 09:49:38;;;;;;;23.05;21.98;;;14.20;82.10;;;;;;4975945;28;20030;-85
2022/02/16 09:52:06;;;;;;;23.35;22.25;;;14.30;82.20;;;;;;4971232;28;20047;-84
2022/02/16 09:54:32;;;;;;;24.42;23.33;;;14.30;82.20;;;;;;4971399;28;20100;-81
2022/02/16 09:56:58;;;;;;;25.02;23.85;;;14.40;82.20;;;;;;4967924;28;20035;-81
2022/02/16 09:59:24;;;;;;;1011.67;511.13;;;14.50;82.10;;;;;;4971255;28;20043;-80
2022/02/16 10:01:56;;;;;;;518.15;267.33;;;14.50;82.00;;;;;;4960103;28;20031;-83
2022/02/16 10:04:24;;;;;;;23.80;22.70;;;14.60;81.80;;;;;;4974034;28;20035;-82
2022/02/16 10:06:50;;;;;;;23.50;22.40;;;14.70;81.70;;;;;;4970983;28;20034;-83
2022/02/16 10:09:24;;;;;;;516.83;266.08;;;14.80;81.60;;;;;;4974351;28;20023;-83
2022/02/16 10:11:52;;;;;;;22.27;21.23;;;14.80;81.50;;;;;;4968377;28;20047;-81
2022/02/16 10:14:19;;;;;;;1505.55;755.30;;;14.90;81.40;;;;;;4970385;28;20054;-81
2022/02/16 10:16:46;;;;;;;1999.90;999.90;;;14.90;81.40;;;;;;4973564;28;20041;-86
2022/02/16 10:19:12;;;;;;;1505.85;755.58;;;14.90;81.40;;;;;;4963946;28;20066;-87
2022/02/16 10:21:38;;;;;;;22.60;21.60;;;14.90;81.50;;;;;;4987747;28;20505;-90
2022/02/16 10:24:05;;;;;;;23.40;22.30;;;15.00;81.50;;;;;;4961161;28;20047;-88
2022/02/16 10:26:50;;;;;;;23.65;22.55;;;15.00;81.40;;;;;;4962844;28;20410;-85
2022/02/16 10:29:24;;;;;;;1505.82;755.55;;;15.10;81.50;;;;;;4970525;28;20043;-86
2022/02/16 10:31:50;;;;;;;1999.90;999.90;;;15.10;81.50;;;;;;4972853;28;20039;-86
2022/02/16 10:34:16;;;;;;;1999.90;999.90;;;15.10;81.40;;;;;;4976011;28;20031;-86
2022/02/16 10:36:46;;;;;;;1999.90;999.90;;;15.20;81.40;;;;;;4978913;28;20034;-88
2022/02/16 10:39:15;;;;;;;1505.68;755.40;;;15.20;81.40;;;;;;4935967;29;20438;-85
2022/02/16 10:41:49;;;;;;;1999.90;999.90;;;15.20;81.40;;;;;;4985144;28;20035;-84
2022/02/16 10:44:20;;;;;;;1999.90;999.90;;;15.30;81.40;;;;;;4964193;28;20517;-87
2022/02/16 10:47:00;;;;;;;1999.90;999.90;;;15.30;81.20;;;;;;4973020;28;20035;-90
2022/02/16 10:49:26;;;;;;;1999.90;999.90;;;15.40;81.30;;;;;;4996482;28;20473;-89
2022/02/16 10:52:10;;;;;;;1999.90;999.90;;;15.40;81.20;;;;;;4977438;28;20053;-93
2022/02/16 10:54:36;;;;;;;1999.90;999.90;;;15.40;81.20;;;;;;4977740;28;20035;-93
2022/02/16 10:57:03;;;;;;;1999.90;999.90;;;15.40;81.10;;;;;;4990631;28;20039;-92
2022/02/16 10:59:31;;;;;;;1999.90;999.90;;;15.40;81.10;;;;;;4962185;28;20061;-92
2022/02/16 11:01:57;;;;;;;1999.90;999.90;;;15.50;81.20;;;;;;4962437;28;20035;-87
2022/02/16 11:04:25;;;;;;;1999.90;999.90;;;15.50;81.10;;;;;;4968152;28;20294;-90
2022/02/16 11:06:51;;;;;;;1999.90;999.90;;;15.40;81.10;;;;;;4937289;28;20043;-88
2022/02/16 11:09:24;;;;;;;1999.90;999.90;;;15.40;81.20;;;;;;4959888;28;20051;-90
2022/02/16 11:11:52;;;;;;;1999.90;999.90;;;15.40;81.30;;;;;;4963896;28;20046;-87
2022/02/16 11:14:21;;;;;;;1999.90;999.90;;;15.30;81.30;;;;;;4971222;28;20370;-88
2022/02/16 11:16:48;;;;;;;1999.90;999.90;;;15.30;81.40;;;;;;4968629;28;20039;-87
2022/02/16 11:19:19;;;;;;;1999.90;999.90;;;15.30;81.50;;;;;;4945672;28;20039;-86
2022/02/16 11:22:18;;;;;;;1999.90;999.90;;;15.30;81.50;;;;;;4973413;28;20500;-89
2022/02/16 11:24:46;;;;;;;1999.90;999.90;;;15.30;81.50;;;;;;4973218;28;20039;-88
2022/02/16 11:27:21;;;;;;;1999.90;999.90;;;15.40;81.50;;;;;;4965643;28;20043;-92
2022/02/16 11:30:04;;;;;;;1999.90;999.90;;;15.30;82.20;;;;;;4987930;28;20051;-91
2022/02/16 11:32:31;;;;;;;1999.90;999.90;;;15.30;81.40;;;;;;4962477;28;20521;-87
2022/02/16 11:35:24;;;;;;;1999.90;999.90;;;15.30;81.40;;;;;;4969422;28;20034;-87
2022/02/16 11:38:02;;;;;;;1999.90;999.90;;;15.30;81.40;;;;;;4967128;28;20046;-88
2022/02/16 11:40:36;;;;;;;1999.90;999.90;;;15.30;81.40;;;;;;4969496;28;20042;-86
2022/02/16 11:43:03;;;;;;;1999.90;999.90;;;15.30;81.40;;;;;;4972448;28;20390;-85
2022/02/16 11:45:48;;;;;;;1999.90;999.90;;;15.30;81.40;;;;;;4972358;28;20389;-85
2022/02/16 11:48:37;;;;;;;1999.90;999.90;;;15.30;81.60;;;;;;4969888;28;20894;-84
2022/02/16 11:51:26;;;;;;;1999.90;999.90;;;15.30;81.60;;;;;;4976434;28;20033;-83
2022/02/16 11:53:53;;;;;;;1999.90;999.90;;;15.30;81.60;;;;;;4962844;28;20412;-85
2022/02/16 11:56:21;;;;;;;1999.90;999.90;;;15.30;81.50;;;;;;4973969;28;20397;-85
2022/02/16 11:59:25;;;;;;;1999.90;999.90;;;15.30;81.50;;;;;;4972885;28;20039;-84
2022/02/16 12:02:09;;;;;;;1999.90;999.90;;;15.30;81.60;;;;;;4952405;28;20054;-83
2022/02/16 12:04:57;;;;;;;1999.90;999.90;;;15.20;81.60;;;;;;4969950;28;20486;-84
2022/02/16 12:07:24;;;;;;;1999.90;999.90;;;15.30;82.40;;;;;;4980564;28;20054;-82
2022/02/16 12:10:18;;;;;;;1999.90;999.90;;;15.30;81.60;;;;;;4956440;28;20143;-85
2022/02/16 12:12:47;;;;;;;1999.90;999.90;;;15.30;81.50;;;;;;4956991;28;20051;-85
2022/02/16 12:15:16;;;;;;;1505.80;755.53;;;15.30;81.30;;;;;;4966647;28;20035;-84
2022/02/16 12:17:42;;;;;;;1999.90;999.90;;;15.40;81.30;;;;;;4944655;28;20047;-84
2022/02/16 12:20:09;;;;;;;1999.90;999.90;;;15.40;81.20;;;;;;4960391;28;20039;-84
2022/02/16 12:22:39;;;;;;;1999.90;999.90;;;15.50;81.20;;;;;;4944403;28;20045;-84
2022/02/16 12:25:14;;;;;;;1999.90;999.90;;;15.50;81.10;;;;;;4965580;28;20378;-83
2022/02/16 12:27:41;;;;;;;1999.90;999.90;;;15.60;81.10;;;;;;4969863;28;20397;-86